sensor_id;sensor_type;location;lat;lon;timestamp;pressure;altitude;pressure_sealevel;temperature;humidity
83512;BME280;73446;0.000;0.000;2023-11-19T00:02:13;98599.44;;;25.57;33.47
83512;BME280;73446;0.000;0.000;2023-11-19T00:04:57;98587.09;;;25.56;33.45
83512;BME280;73446;0.000;0.000;2023-11-19T00:07:42;98587.22;;;25.51;33.58
83512;BME280;73446;0.000;0.000;2023-11-19T00:10:26;98587.53;;;25.49;33.62
83512;BME280;73446;0.000;0.000;2023-11-19T00:13:10;98576.63;;;25.45;33.61
83512;BME280;73446;0.000;0.000;2023-11-19T00:15:54;98572.66;;;25.43;33.62
83512;BME280;73446;0.000;0.000;2023-11-19T00:18:38;98581.38;;;25.40;33.46
83512;BME280;73446;0.000;0.000;2023-11-19T00:21:27;98578.50;;;25.36;33.81
83512;BME280;73446;0.000;0.000;2023-11-19T00:24:12;98574.22;;;25.35;33.76
83512;BME280;73446;0.000;0.000;2023-11-19T00:26:56;98569.16;;;25.34;33.63
83512;BME280;73446;0.000;0.000;2023-11-19T00:29:40;98563.63;;;25.30;33.84
83512;BME280;73446;0.000;0.000;2023-11-19T00:32:24;98561.56;;;25.27;33.91
83512;BME280;73446;0.000;0.000;2023-11-19T00:35:09;98555.72;;;25.25;34.12
83512;BME280;73446;0.000;0.000;2023-11-19T00:37:57;98544.47;;;25.23;33.89
83512;BME280;73446;0.000;0.000;2023-11-19T00:40:42;98545.88;;;25.21;34.08
83512;BME280;73446;0.000;0.000;2023-11-19T00:43:26;98554.25;;;25.19;33.87
83512;BME280;73446;0.000;0.000;2023-11-19T00:46:11;98556.81;;;25.16;34.22
83512;BME280;73446;0.000;0.000;2023-11-19T00:48:55;98536.41;;;25.15;33.83
83512;BME280;73446;0.000;0.000;2023-11-19T00:51:42;98540.50;;;25.12;34.25
83512;BME280;73446;0.000;0.000;2023-11-19T00:54:26;98536.53;;;25.09;33.94
83512;BME280;73446;0.000;0.000;2023-11-19T00:57:10;98529.88;;;25.07;34.13
83512;BME280;73446;0.000;0.000;2023-11-19T00:59:54;98533.19;;;25.04;34.24
83512;BME280;73446;0.000;0.000;2023-11-19T01:02:38;98546.16;;;25.02;34.19
83512;BME280;73446;0.000;0.000;2023-11-19T01:05:23;98537.63;;;25.00;34.34
83512;BME280;73446;0.000;0.000;2023-11-19T01:08:06;98542.84;;;24.96;34.42
83512;BME280;73446;0.000;0.000;2023-11-19T01:10:50;98538.56;;;24.95;34.25
83512;BME280;73446;0.000;0.000;2023-11-19T01:13:34;98531.88;;;24.93;34.36
83512;BME280;73446;0.000;0.000;2023-11-19T01:16:18;98530.59;;;24.90;34.36
83512;BME280;73446;0.000;0.000;2023-11-19T01:19:03;98533.13;;;24.87;34.48
83512;BME280;73446;0.000;0.000;2023-11-19T01:21:49;98534.53;;;24.84;34.64
83512;BME280;73446;0.000;0.000;2023-11-19T01:24:32;98543.72;;;24.83;34.37
83512;BME280;73446;0.000;0.000;2023-11-19T01:27:17;98542.13;;;24.82;34.54
83512;BME280;73446;0.000;0.000;2023-11-19T01:30:03;98540.06;;;24.79;34.57
83512;BME280;73446;0.000;0.000;2023-11-19T01:32:49;98547.34;;;24.79;34.84
83512;BME280;73446;0.000;0.000;2023-11-19T01:35:33;98538.00;;;24.76;34.84
83512;BME280;73446;0.000;0.000;2023-11-19T01:38:17;98544.78;;;24.73;34.64
83512;BME280;73446;0.000;0.000;2023-11-19T01:41:01;98532.44;;;24.72;34.69
83512;BME280;73446;0.000;0.000;2023-11-19T01:43:47;98531.97;;;24.70;34.84
83512;BME280;73446;0.000;0.000;2023-11-19T01:46:31;98540.66;;;24.67;34.85
83512;BME280;73446;0.000;0.000;2023-11-19T01:49:17;98541.75;;;24.66;34.77
83512;BME280;73446;0.000;0.000;2023-11-19T01:52:01;98535.91;;;24.64;34.85
83512;BME280;73446;0.000;0.000;2023-11-19T01:54:46;98530.84;;;24.63;35.11
83512;BME280;73446;0.000;0.000;2023-11-19T01:57:30;98531.16;;;24.61;34.80
83512;BME280;73446;0.000;0.000;2023-11-19T02:00:15;98529.06;;;24.58;35.16
83512;BME280;73446;0.000;0.000;2023-11-19T02:03:00;98527.47;;;24.57;34.93
83512;BME280;73446;0.000;0.000;2023-11-19T02:05:45;98529.69;;;24.55;35.18
83512;BME280;73446;0.000;0.000;2023-11-19T02:08:30;98519.56;;;24.52;35.16
83512;BME280;73446;0.000;0.000;2023-11-19T02:11:15;98526.06;;;24.51;35.16
83512;BME280;73446;0.000;0.000;2023-11-19T02:13:59;98522.09;;;24.49;34.98
83512;BME280;73446;0.000;0.000;2023-11-19T02:16:44;98520.50;;;24.48;35.41
83512;BME280;73446;0.000;0.000;2023-11-19T02:19:28;98521.91;;;24.45;35.33
83512;BME280;73446;0.000;0.000;2023-11-19T02:22:12;98521.13;;;24.45;35.50
83512;BME280;73446;0.000;0.000;2023-11-19T02:25:00;98519.84;;;24.42;35.13
83512;BME280;73446;0.000;0.000;2023-11-19T02:27:53;98526.91;;;24.38;35.54
83512;BME280;73446;0.000;0.000;2023-11-19T02:30:40;98536.06;;;24.37;35.32
83512;BME280;73446;0.000;0.000;2023-11-19T02:33:24;98531.81;;;24.36;35.63
83512;BME280;73446;0.000;0.000;2023-11-19T02:36:09;98525.97;;;24.34;35.61
83512;BME280;73446;0.000;0.000;2023-11-19T02:38:53;98521.22;;;24.31;35.35
83512;BME280;73446;0.000;0.000;2023-11-19T02:41:37;98525.00;;;24.30;35.31
83512;BME280;73446;0.000;0.000;2023-11-19T02:44:23;98528.78;;;24.29;35.52
83512;BME280;73446;0.000;0.000;2023-11-19T02:47:07;98507.91;;;24.26;35.79
83512;BME280;73446;0.000;0.000;2023-11-19T02:49:51;98520.84;;;24.24;35.53
83512;BME280;73446;0.000;0.000;2023-11-19T02:52:36;98516.84;;;24.21;35.72
83512;BME280;73446;0.000;0.000;2023-11-19T02:55:21;98535.16;;;24.19;35.65
83512;BME280;73446;0.000;0.000;2023-11-19T02:58:07;98530.44;;;24.16;35.81
83512;BME280;73446;0.000;0.000;2023-11-19T03:01:04;98515.09;;;24.17;35.97
83512;BME280;73446;0.000;0.000;2023-11-19T03:03:57;98504.19;;;24.13;35.86
83512;BME280;73446;0.000;0.000;2023-11-19T03:06:41;98500.22;;;24.11;35.81
83512;BME280;73446;0.000;0.000;2023-11-19T03:09:28;98485.22;;;24.10;36.13
83512;BME280;73446;0.000;0.000;2023-11-19T03:12:13;98488.19;;;24.08;36.08
83512;BME280;73446;0.000;0.000;2023-11-19T03:14:57;98499.25;;;24.06;36.16
83512;BME280;73446;0.000;0.000;2023-11-19T03:17:42;98500.34;;;24.05;35.98
83512;BME280;73446;0.000;0.000;2023-11-19T03:20:29;98498.75;;;24.04;36.00
83512;BME280;73446;0.000;0.000;2023-11-19T03:23:13;98495.59;;;24.02;36.03
83512;BME280;73446;0.000;0.000;2023-11-19T03:25:58;98498.09;;;23.99;36.40
83512;BME280;73446;0.000;0.000;2023-11-19T03:28:42;98508.06;;;23.98;36.41
83512;BME280;73446;0.000;0.000;2023-11-19T03:31:26;98498.41;;;23.97;36.23
83512;BME280;73446;0.000;0.000;2023-11-19T03:34:10;98500.59;;;23.95;36.42
83512;BME280;73446;0.000;0.000;2023-11-19T03:36:54;98495.53;;;23.94;36.13
83512;BME280;73446;0.000;0.000;2023-11-19T03:39:42;98481.94;;;23.90;36.42
83512;BME280;73446;0.000;0.000;2023-11-19T03:42:26;98474.19;;;23.89;36.54
83512;BME280;73446;0.000;0.000;2023-11-19T03:45:11;98484.63;;;23.90;36.61
83512;BME280;73446;0.000;0.000;2023-11-19T03:47:55;98494.06;;;23.88;36.64
83512;BME280;73446;0.000;0.000;2023-11-19T03:50:39;98490.13;;;23.85;36.23
83512;BME280;73446;0.000;0.000;2023-11-19T03:53:23;98492.31;;;23.83;36.78
83512;BME280;73446;0.000;0.000;2023-11-19T03:56:08;98485.38;;;23.82;36.50
83512;BME280;73446;0.000;0.000;2023-11-19T03:58:53;98483.78;;;23.81;36.50
83512;BME280;73446;0.000;0.000;2023-11-19T04:01:37;98508.72;;;23.82;36.75
83512;BME280;73446;0.000;0.000;2023-11-19T04:04:21;98509.53;;;23.82;36.59
83512;BME280;73446;0.000;0.000;2023-11-19T04:07:06;98514.88;;;23.82;36.59
83512;BME280;73446;0.000;0.000;2023-11-19T04:09:50;98510.63;;;23.81;36.62
83512;BME280;73446;0.000;0.000;2023-11-19T04:12:35;98497.19;;;23.81;36.67
83512;BME280;73446;0.000;0.000;2023-11-19T04:15:19;98507.94;;;23.81;36.52
83512;BME280;73446;0.000;0.000;2023-11-19T04:18:03;98497.50;;;23.80;36.56
83512;BME280;73446;0.000;0.000;2023-11-19T04:20:47;98508.25;;;23.80;36.90
83512;BME280;73446;0.000;0.000;2023-11-19T04:23:31;98509.03;;;23.80;36.74
83512;BME280;73446;0.000;0.000;2023-11-19T04:26:15;98508.25;;;23.80;36.83
83512;BME280;73446;0.000;0.000;2023-11-19T04:28:59;98492.44;;;23.78;36.48
83512;BME280;73446;0.000;0.000;2023-11-19T04:31:44;98487.06;;;23.78;36.89
83512;BME280;73446;0.000;0.000;2023-11-19T04:34:28;98485.47;;;23.77;36.77
83512;BME280;73446;0.000;0.000;2023-11-19T04:37:12;98479.31;;;23.77;36.85
83512;BME280;73446;0.000;0.000;2023-11-19T04:39:58;98471.59;;;23.75;37.02
83512;BME280;73446;0.000;0.000;2023-11-19T04:42:43;98486.09;;;23.74;36.80
83512;BME280;73446;0.000;0.000;2023-11-19T04:45:27;98496.81;;;23.74;36.76
83512;BME280;73446;0.000;0.000;2023-11-19T04:48:11;98495.25;;;23.73;36.60
83512;BME280;73446;0.000;0.000;2023-11-19T04:50:56;98502.50;;;23.72;36.70
83512;BME280;73446;0.000;0.000;2023-11-19T04:53:40;98500.59;;;23.73;36.58
83512;BME280;73446;0.000;0.000;2023-11-19T04:56:25;98494.75;;;23.71;37.08
83512;BME280;73446;0.000;0.000;2023-11-19T04:59:12;98500.13;;;23.71;36.94
83512;BME280;73446;0.000;0.000;2023-11-19T05:01:56;98487.81;;;23.70;37.20
83512;BME280;73446;0.000;0.000;2023-11-19T05:04:44;98491.28;;;23.70;37.02
83512;BME280;73446;0.000;0.000;2023-11-19T05:07:30;98495.88;;;23.70;36.88
83512;BME280;73446;0.000;0.000;2023-11-19T05:10:14;98488.91;;;23.69;36.88
83512;BME280;73446;0.000;0.000;2023-11-19T05:12:58;98487.81;;;23.70;36.94
83512;BME280;73446;0.000;0.000;2023-11-19T05:15:43;98490.81;;;23.68;37.01
83512;BME280;73446;0.000;0.000;2023-11-19T05:18:27;98495.38;;;23.68;36.83
83512;BME280;73446;0.000;0.000;2023-11-19T05:21:11;98480.38;;;23.67;36.98
83512;BME280;73446;0.000;0.000;2023-11-19T05:23:55;98475.81;;;23.67;37.07
83512;BME280;73446;0.000;0.000;2023-11-19T05:26:40;98463.50;;;23.66;37.22
83512;BME280;73446;0.000;0.000;2023-11-19T05:29:24;98463.50;;;23.66;36.92
83512;BME280;73446;0.000;0.000;2023-11-19T05:32:09;98473.44;;;23.66;37.04
83512;BME280;73446;0.000;0.000;2023-11-19T05:34:52;98473.44;;;23.66;37.10
83512;BME280;73446;0.000;0.000;2023-11-19T05:37:36;98469.66;;;23.67;37.03
83512;BME280;73446;0.000;0.000;2023-11-19T05:40:20;98468.06;;;23.66;36.91
83512;BME280;73446;0.000;0.000;2023-11-19T05:43:04;98470.75;;;23.66;36.76
83512;BME280;73446;0.000;0.000;2023-11-19T05:45:48;98464.88;;;23.64;36.89
83512;BME280;73446;0.000;0.000;2023-11-19T05:48:32;98476.09;;;23.66;37.20
83512;BME280;73446;0.000;0.000;2023-11-19T05:51:16;98467.25;;;23.65;36.95
83512;BME280;73446;0.000;0.000;2023-11-19T05:54:00;98471.84;;;23.65;37.29
83512;BME280;73446;0.000;0.000;2023-11-19T05:56:50;98471.84;;;23.65;37.11
83512;BME280;73446;0.000;0.000;2023-11-19T05:59:34;98486.34;;;23.64;37.13
83512;BME280;73446;0.000;0.000;2023-11-19T06:02:17;98479.41;;;23.63;37.46
83512;BME280;73446;0.000;0.000;2023-11-19T06:05:02;98480.50;;;23.62;37.11
83512;BME280;73446;0.000;0.000;2023-11-19T06:07:46;98475.13;;;23.62;37.35
83512;BME280;73446;0.000;0.000;2023-11-19T06:10:30;98475.13;;;23.62;37.34
83512;BME280;73446;0.000;0.000;2023-11-19T06:13:16;98477.00;;;23.61;37.22
83512;BME280;73446;0.000;0.000;2023-11-19T06:16:00;98467.06;;;23.62;37.15
83512;BME280;73446;0.000;0.000;2023-11-19T06:18:46;98466.59;;;23.60;37.24
83512;BME280;73446;0.000;0.000;2023-11-19T06:21:30;98465.50;;;23.61;37.35
83512;BME280;73446;0.000;0.000;2023-11-19T06:24:14;98477.31;;;23.60;37.48
83512;BME280;73446;0.000;0.000;2023-11-19T06:26:58;98482.97;;;23.58;37.19
83512;BME280;73446;0.000;0.000;2023-11-19T06:29:42;98478.72;;;23.57;37.66
83512;BME280;73446;0.000;0.000;2023-11-19T06:32:28;98467.19;;;23.57;37.57
83512;BME280;73446;0.000;0.000;2023-11-19T06:35:12;98461.03;;;23.56;37.58
83512;BME280;73446;0.000;0.000;2023-11-19T06:37:57;98476.34;;;23.56;37.58
83512;BME280;73446;0.000;0.000;2023-11-19T06:40:43;98469.88;;;23.57;37.29
83512;BME280;73446;0.000;0.000;2023-11-19T06:43:27;98460.53;;;23.54;37.78
83512;BME280;73446;0.000;0.000;2023-11-19T06:46:17;98475.06;;;23.53;37.29
83512;BME280;73446;0.000;0.000;2023-11-19T06:49:01;98475.38;;;23.52;37.06
83512;BME280;73446;0.000;0.000;2023-11-19T06:51:48;98473.50;;;23.52;37.59
83512;BME280;73446;0.000;0.000;2023-11-19T06:54:32;98465.44;;;23.52;38.16
83512;BME280;73446;0.000;0.000;2023-11-19T06:57:16;98475.88;;;23.54;37.82
83512;BME280;73446;0.000;0.000;2023-11-19T07:00:01;98468.13;;;23.52;38.00
83512;BME280;73446;0.000;0.000;2023-11-19T07:02:45;98472.69;;;23.52;38.11
83512;BME280;73446;0.000;0.000;2023-11-19T07:05:36;98477.44;;;23.55;39.72
83512;BME280;73446;0.000;0.000;2023-11-19T07:08:22;98475.06;;;23.53;39.40
83512;BME280;73446;0.000;0.000;2023-11-19T07:11:06;98478.06;;;23.52;39.80
83512;BME280;73446;0.000;0.000;2023-11-19T07:13:53;98482.00;;;23.54;40.04
83512;BME280;73446;0.000;0.000;2023-11-19T07:16:38;98492.13;;;23.57;40.00
83512;BME280;73446;0.000;0.000;2023-11-19T07:19:25;98486.47;;;23.59;40.31
83512;BME280;73446;0.000;0.000;2023-11-19T07:22:09;98504.13;;;23.60;40.57
83512;BME280;73446;0.000;0.000;2023-11-19T07:24:55;98499.28;;;23.62;40.58
83512;BME280;73446;0.000;0.000;2023-11-19T07:27:39;98507.31;;;23.62;40.50
83512;BME280;73446;0.000;0.000;2023-11-19T07:30:22;98527.19;;;23.61;40.49
83512;BME280;73446;0.000;0.000;2023-11-19T07:33:07;98514.88;;;23.60;40.75
83512;BME280;73446;0.000;0.000;2023-11-19T07:35:51;98502.56;;;23.59;40.53
83512;BME280;73446;0.000;0.000;2023-11-19T07:38:35;98512.78;;;23.57;40.58
83512;BME280;73446;0.000;0.000;2023-11-19T07:41:20;98526.84;;;23.54;40.50
83512;BME280;73446;0.000;0.000;2023-11-19T07:44:04;98527.94;;;23.53;41.16
83512;BME280;73446;0.000;0.000;2023-11-19T07:46:48;98529.81;;;23.52;41.01
83512;BME280;73446;0.000;0.000;2023-11-19T07:49:32;98538.44;;;23.49;40.81
83512;BME280;73446;0.000;0.000;2023-11-19T07:52:16;98523.13;;;23.50;40.49
83512;BME280;73446;0.000;0.000;2023-11-19T07:55:01;98524.22;;;23.49;40.53
83512;BME280;73446;0.000;0.000;2023-11-19T07:57:45;98524.22;;;23.49;40.33
83512;BME280;73446;0.000;0.000;2023-11-19T08:00:29;98527.69;;;23.49;40.50
83512;BME280;73446;0.000;0.000;2023-11-19T08:03:14;98543.00;;;23.49;40.77
83512;BME280;73446;0.000;0.000;2023-11-19T08:05:58;98539.53;;;23.48;40.96
83512;BME280;73446;0.000;0.000;2023-11-19T08:08:42;98539.03;;;23.46;40.67
83512;BME280;73446;0.000;0.000;2023-11-19T08:11:27;98559.38;;;23.47;40.78
83512;BME280;73446;0.000;0.000;2023-11-19T08:14:11;98567.44;;;23.47;40.86
83512;BME280;73446;0.000;0.000;2023-11-19T08:16:55;98555.91;;;23.47;40.65
83512;BME280;73446;0.000;0.000;2023-11-19T08:19:39;98557.50;;;23.48;40.99
83512;BME280;73446;0.000;0.000;2023-11-19T08:22:23;98555.91;;;23.47;40.74
83512;BME280;73446;0.000;0.000;2023-11-19T08:25:08;98560.97;;;23.48;40.71
83512;BME280;73446;0.000;0.000;2023-11-19T08:27:52;98565.78;;;23.51;39.91
83512;BME280;73446;0.000;0.000;2023-11-19T08:30:36;98566.56;;;23.52;40.05
83512;BME280;73446;0.000;0.000;2023-11-19T08:33:20;98571.63;;;23.53;39.94
83512;BME280;73446;0.000;0.000;2023-11-19T08:36:06;98560.91;;;23.53;40.24
83512;BME280;73446;0.000;0.000;2023-11-19T08:38:54;98565.47;;;23.53;39.73
83512;BME280;73446;0.000;0.000;2023-11-19T08:41:38;98573.00;;;23.51;39.89
83512;BME280;73446;0.000;0.000;2023-11-19T08:44:23;98564.47;;;23.49;40.11
83512;BME280;73446;0.000;0.000;2023-11-19T08:47:12;98577.88;;;23.49;40.03
83512;BME280;73446;0.000;0.000;2023-11-19T08:49:57;98567.72;;;23.46;40.82
83512;BME280;73446;0.000;0.000;2023-11-19T08:52:41;98575.78;;;23.46;40.53
83512;BME280;73446;0.000;0.000;2023-11-19T08:55:25;98593.75;;;23.45;40.57
83512;BME280;73446;0.000;0.000;2023-11-19T08:58:11;98596.75;;;23.44;40.98
83512;BME280;73446;0.000;0.000;2023-11-19T09:00:55;98587.91;;;23.43;40.91
83512;BME280;73446;0.000;0.000;2023-11-19T09:03:39;98580.66;;;23.44;40.99
83512;BME280;73446;0.000;0.000;2023-11-19T09:06:23;98609.56;;;23.47;40.61
83512;BME280;73446;0.000;0.000;2023-11-19T09:09:08;98607.97;;;23.46;41.15
83512;BME280;73446;0.000;0.000;2023-11-19T09:11:53;98619.50;;;23.46;40.24
83512;BME280;73446;0.000;0.000;2023-11-19T09:14:37;98614.41;;;23.45;40.65
83512;BME280;73446;0.000;0.000;2023-11-19T09:17:21;98618.69;;;23.46;40.56
83512;BME280;73446;0.000;0.000;2023-11-19T09:20:05;98622.97;;;23.47;40.41
83512;BME280;73446;0.000;0.000;2023-11-19T09:22:50;98631.81;;;23.47;39.88
83512;BME280;73446;0.000;0.000;2023-11-19T09:25:35;98622.66;;;23.48;40.05
83512;BME280;73446;0.000;0.000;2023-11-19T09:28:19;98619.50;;;23.46;40.80
83512;BME280;73446;0.000;0.000;2023-11-19T09:31:02;98612.03;;;23.43;40.18
83512;BME280;73446;0.000;0.000;2023-11-19T09:33:50;98621.75;;;23.39;40.39
83512;BME280;73446;0.000;0.000;2023-11-19T09:36:34;98615.13;;;23.36;40.04
83512;BME280;73446;0.000;0.000;2023-11-19T09:39:18;98611.53;;;23.41;39.56
83512;BME280;73446;0.000;0.000;2023-11-19T09:42:03;98610.75;;;23.41;39.77
83512;BME280;73446;0.000;0.000;2023-11-19T09:44:47;98618.50;;;23.42;39.58
83512;BME280;73446;0.000;0.000;2023-11-19T09:47:32;98623.06;;;23.42;39.80
83512;BME280;73446;0.000;0.000;2023-11-19T09:50:17;98625.53;;;23.38;39.62
83512;BME280;73446;0.000;0.000;2023-11-19T09:53:04;98621.28;;;23.37;39.56
83512;BME280;73446;0.000;0.000;2023-11-19T09:55:49;98620.00;;;23.34;39.91
83512;BME280;73446;0.000;0.000;2023-11-19T09:58:34;98624.88;;;23.32;39.85
83512;BME280;73446;0.000;0.000;2023-11-19T10:01:18;98620.31;;;23.33;39.79
83512;BME280;73446;0.000;0.000;2023-11-19T10:04:03;98623.78;;;23.33;39.83
83512;BME280;73446;0.000;0.000;2023-11-19T10:06:47;98629.44;;;23.32;40.00
83512;BME280;73446;0.000;0.000;2023-11-19T10:09:31;98616.81;;;23.32;39.94
83512;BME280;73446;0.000;0.000;2023-11-19T10:12:15;98614.16;;;23.32;39.92
83512;BME280;73446;0.000;0.000;2023-11-19T10:15:00;98609.56;;;23.33;39.81
83512;BME280;73446;0.000;0.000;2023-11-19T10:17:45;98607.41;;;23.35;39.91
83512;BME280;73446;0.000;0.000;2023-11-19T10:20:40;98601.25;;;23.34;39.91
83512;BME280;73446;0.000;0.000;2023-11-19T10:23:24;98597.06;;;23.28;39.95
83512;BME280;73446;0.000;0.000;2023-11-19T10:26:09;98596.25;;;23.28;39.87
83512;BME280;73446;0.000;0.000;2023-11-19T10:28:55;98582.75;;;23.33;39.76
83512;BME280;73446;0.000;0.000;2023-11-19T10:31:39;98599.34;;;23.35;40.26
83512;BME280;73446;0.000;0.000;2023-11-19T10:34:27;98588.63;;;23.35;40.39
83512;BME280;73446;0.000;0.000;2023-11-19T10:37:37;98595.56;;;23.36;40.37
83512;BME280;73446;0.000;0.000;2023-11-19T10:40:21;98601.25;;;23.34;40.23
83512;BME280;73446;0.000;0.000;2023-11-19T10:43:05;98592.09;;;23.35;40.21
83512;BME280;73446;0.000;0.000;2023-11-19T10:45:51;98593.69;;;23.36;40.06
83512;BME280;73446;0.000;0.000;2023-11-19T10:48:36;98592.91;;;23.36;39.71
83512;BME280;73446;0.000;0.000;2023-11-19T10:51:22;98592.09;;;23.35;40.28
83512;BME280;73446;0.000;0.000;2023-11-19T10:54:09;98591.91;;;23.32;40.28
83512;BME280;73446;0.000;0.000;2023-11-19T10:56:59;98589.50;;;23.30;40.31
83512;BME280;73446;0.000;0.000;2023-11-19T10:59:45;98579.59;;;23.31;41.74
83512;BME280;73446;0.000;0.000;2023-11-19T11:02:30;98589.50;;;23.30;43.58
83512;BME280;73446;0.000;0.000;2023-11-19T11:05:18;98580.97;;;23.28;44.83
83512;BME280;73446;0.000;0.000;2023-11-19T11:08:04;98572.63;;;23.30;45.33
83512;BME280;73446;0.000;0.000;2023-11-19T11:10:53;98575.81;;;23.32;46.53
83512;BME280;73446;0.000;0.000;2023-11-19T11:13:41;98569.84;;;23.35;46.05
83512;BME280;73446;0.000;0.000;2023-11-19T11:16:26;98578.19;;;23.33;46.10
83512;BME280;73446;0.000;0.000;2023-11-19T11:19:12;98571.25;;;23.32;45.74
83512;BME280;73446;0.000;0.000;2023-11-19T11:21:56;98573.81;;;23.37;45.92
83512;BME280;73446;0.000;0.000;2023-11-19T11:31:13;98564.28;;;23.31;48.54
83512;BME280;73446;0.000;0.000;2023-11-19T11:39:47;98577.47;;;23.42;51.10
83512;BME280;73446;0.000;0.000;2023-11-19T11:42:34;98568.03;;;23.44;50.86
83512;BME280;73446;0.000;0.000;2023-11-19T11:45:18;98555.63;;;23.48;51.30
83512;BME280;73446;0.000;0.000;2023-11-19T11:48:09;98554.81;;;23.48;50.87
83512;BME280;73446;0.000;0.000;2023-11-19T11:50:57;98550.56;;;23.47;50.45
83512;BME280;73446;0.000;0.000;2023-11-19T11:53:42;98557.50;;;23.48;50.17
83512;BME280;73446;0.000;0.000;2023-11-19T11:56:33;98551.34;;;23.47;49.63
83512;BME280;73446;0.000;0.000;2023-11-19T11:59:20;98551.34;;;23.47;49.02
83512;BME280;73446;0.000;0.000;2023-11-19T12:02:07;98548.16;;;23.45;48.51
83512;BME280;73446;0.000;0.000;2023-11-19T12:04:52;98536.94;;;23.43;48.34
83512;BME280;73446;0.000;0.000;2023-11-19T12:07:38;98533.97;;;23.45;48.49
83512;BME280;73446;0.000;0.000;2023-11-19T12:10:24;98533.16;;;23.44;48.01
83512;BME280;73446;0.000;0.000;2023-11-19T12:13:09;98534.25;;;23.43;47.93
83512;BME280;73446;0.000;0.000;2023-11-19T12:18:40;98522.75;;;23.43;47.79
83512;BME280;73446;0.000;0.000;2023-11-19T12:21:31;98514.69;;;23.43;47.14
83512;BME280;73446;0.000;0.000;2023-11-19T12:24:15;98521.66;;;23.44;47.08
83512;BME280;73446;0.000;0.000;2023-11-19T12:27:00;98504.47;;;23.45;46.39
83512;BME280;73446;0.000;0.000;2023-11-19T12:29:44;98503.97;;;23.43;46.47
83512;BME280;73446;0.000;0.000;2023-11-19T12:32:42;98517.38;;;23.43;46.20
83512;BME280;73446;0.000;0.000;2023-11-19T12:35:27;98502.09;;;23.43;45.62
83512;BME280;73446;0.000;0.000;2023-11-19T12:38:25;98503.97;;;23.43;45.39
83512;BME280;73446;0.000;0.000;2023-11-19T12:41:09;98503.97;;;23.43;45.73
83512;BME280;73446;0.000;0.000;2023-11-19T12:44:08;98505.06;;;23.42;45.39
83512;BME280;73446;0.000;0.000;2023-11-19T12:47:06;98500.19;;;23.44;44.95
83512;BME280;73446;0.000;0.000;2023-11-19T12:49:57;98501.28;;;23.43;44.53
83512;BME280;73446;0.000;0.000;2023-11-19T12:52:41;98494.34;;;23.42;44.91
83512;BME280;73446;0.000;0.000;2023-11-19T12:55:25;98495.91;;;23.43;44.97
83512;BME280;73446;0.000;0.000;2023-11-19T12:58:10;98489.47;;;23.44;44.50
83512;BME280;73446;0.000;0.000;2023-11-19T13:01:02;98485.19;;;23.43;44.45
83512;BME280;73446;0.000;0.000;2023-11-19T13:03:47;98477.16;;;23.43;44.60
83512;BME280;73446;0.000;0.000;2023-11-19T13:06:35;98476.66;;;23.41;44.48
83512;BME280;73446;0.000;0.000;2023-11-19T13:09:26;98455.22;;;23.41;44.38
83512;BME280;73446;0.000;0.000;2023-11-19T13:12:14;98465.94;;;23.41;44.58
83512;BME280;73446;0.000;0.000;2023-11-19T13:14:59;98469.91;;;23.43;46.87
83512;BME280;73446;0.000;0.000;2023-11-19T13:17:43;98472.28;;;23.45;47.12
83512;BME280;73446;0.000;0.000;2023-11-19T13:20:27;98476.06;;;23.44;46.76
83512;BME280;73446;0.000;0.000;2023-11-19T13:23:11;98478.44;;;23.45;46.27
83512;BME280;73446;0.000;0.000;2023-11-19T13:25:55;98468.81;;;23.44;46.43
83512;BME280;73446;0.000;0.000;2023-11-19T13:28:39;98453.50;;;23.45;46.13
83512;BME280;73446;0.000;0.000;2023-11-19T13:31:23;98443.09;;;23.43;45.92
83512;BME280;73446;0.000;0.000;2023-11-19T13:34:07;98449.25;;;23.44;46.08
83512;BME280;73446;0.000;0.000;2023-11-19T13:36:52;98442.78;;;23.45;45.87
83512;BME280;73446;0.000;0.000;2023-11-19T13:39:35;98438.69;;;23.47;45.27
83512;BME280;73446;0.000;0.000;2023-11-19T13:42:19;98441.69;;;23.46;44.77
83512;BME280;73446;0.000;0.000;2023-11-19T13:45:04;98442.47;;;23.46;44.89
83512;BME280;73446;0.000;0.000;2023-11-19T13:47:48;98435.22;;;23.47;44.77
83512;BME280;73446;0.000;0.000;2023-11-19T13:50:32;98436.31;;;23.46;45.10
83512;BME280;73446;0.000;0.000;2023-11-19T13:53:17;98433.16;;;23.44;44.64
83512;BME280;73446;0.000;0.000;2023-11-19T13:56:02;98435.84;;;23.44;44.91
83512;BME280;73446;0.000;0.000;2023-11-19T13:58:46;98441.69;;;23.46;44.99
83512;BME280;73446;0.000;0.000;2023-11-19T14:01:30;98440.88;;;23.45;44.53
83512;BME280;73446;0.000;0.000;2023-11-19T14:04:14;98439.31;;;23.44;44.76
83512;BME280;73446;0.000;0.000;2023-11-19T14:06:59;98437.91;;;23.47;44.68
83512;BME280;73446;0.000;0.000;2023-11-19T14:09:43;98433.34;;;23.47;44.74
83512;BME280;73446;0.000;0.000;2023-11-19T14:12:30;98434.72;;;23.45;45.42
83512;BME280;73446;0.000;0.000;2023-11-19T14:15:14;98428.56;;;23.44;45.36
83512;BME280;73446;0.000;0.000;2023-11-19T14:17:58;98439.00;;;23.46;45.39
83512;BME280;73446;0.000;0.000;2023-11-19T14:20:42;98428.28;;;23.46;45.54
83512;BME280;73446;0.000;0.000;2023-11-19T14:23:27;98425.59;;;23.46;45.47
83512;BME280;73446;0.000;0.000;2023-11-19T14:26:11;98431.75;;;23.46;45.51
83512;BME280;73446;0.000;0.000;2023-11-19T14:28:56;98422.91;;;23.46;45.44
83512;BME280;73446;0.000;0.000;2023-11-19T14:31:40;98417.84;;;23.44;45.57
83512;BME280;73446;0.000;0.000;2023-11-19T14:34:24;98423.22;;;23.44;45.82
83512;BME280;73446;0.000;0.000;2023-11-19T14:37:10;98425.09;;;23.44;45.48
83512;BME280;73446;0.000;0.000;2023-11-19T14:39:53;98424.81;;;23.45;45.20
83512;BME280;73446;0.000;0.000;2023-11-19T14:42:38;98439.50;;;23.48;45.22
83512;BME280;73446;0.000;0.000;2023-11-19T14:45:24;98429.88;;;23.47;45.53
83512;BME280;73446;0.000;0.000;2023-11-19T14:48:08;98434.44;;;23.46;45.35
83512;BME280;73446;0.000;0.000;2023-11-19T14:50:53;98427.19;;;23.47;44.68
83512;BME280;73446;0.000;0.000;2023-11-19T14:53:37;98429.38;;;23.45;44.23
83512;BME280;73446;0.000;0.000;2023-11-19T14:56:21;98424.81;;;23.45;43.83
83512;BME280;73446;0.000;0.000;2023-11-19T14:59:05;98436.94;;;23.43;43.37
83512;BME280;73446;0.000;0.000;2023-11-19T15:01:50;98442.00;;;23.44;42.87